createdAt,value
2022-09-23T00:01:15.727Z,3.00
2022-09-23T00:03:46.553Z,2.90
2022-09-23T00:06:16.516Z,3.00
2022-09-23T00:08:44.903Z,2.50
2022-09-23T00:11:14.949Z,3.05
2022-09-23T00:13:44.638Z,2.95
2022-09-23T00:16:15.582Z,2.95
2022-09-23T00:18:44.636Z,3.20
2022-09-23T00:21:14.371Z,2.42
2022-09-23T00:23:43.790Z,2.50
2022-09-23T00:26:13.751Z,3.00
2022-09-23T00:28:41.406Z,3.05
2022-09-23T00:31:10.857Z,2.47
2022-09-23T00:33:40.393Z,2.78
2022-09-23T00:36:11.914Z,2.58
2022-09-23T00:38:40.112Z,2.08
2022-09-23T00:41:07.870Z,2.55
2022-09-23T00:43:41.046Z,2.75
2022-09-23T00:46:10.593Z,2.95
2022-09-23T00:48:42.061Z,2.60
2022-09-23T00:51:17.699Z,2.47
2022-09-23T00:53:46.701Z,2.95
2022-09-23T00:56:15.744Z,2.80
2022-09-23T00:58:48.148Z,2.47
2022-09-23T01:01:15.831Z,2.78
2022-09-23T01:03:46.258Z,2.50
2022-09-23T01:06:15.201Z,2.45
2022-09-23T01:08:45.291Z,2.35
2022-09-23T01:11:27.964Z,2.80
2022-09-23T01:14:07.179Z,5.07
2022-09-23T01:16:41.026Z,3.40
2022-09-23T01:19:25.330Z,2.80
2022-09-23T01:22:04.868Z,2.75
2022-09-23T01:24:59.356Z,2.53
2022-09-23T01:27:42.684Z,2.58
2022-09-23T01:30:17.795Z,2.50
2022-09-23T01:32:57.276Z,2.35
2022-09-23T01:35:30.252Z,2.13
2022-09-23T01:38:08.697Z,2.15
2022-09-23T01:40:46.379Z,2.55
2022-09-23T01:43:21.083Z,2.50
2022-09-23T01:45:54.404Z,2.72
2022-09-23T01:48:27.292Z,2.30
2022-09-23T01:50:58.984Z,1.30
2022-09-23T01:53:32.883Z,2.22
2022-09-23T01:56:05.137Z,2.30
2022-09-23T01:58:39.012Z,2.70
2022-09-23T02:01:08.721Z,2.28
2022-09-23T02:03:44.879Z,2.20
2022-09-23T02:06:17.052Z,2.10
2022-09-23T02:08:50.102Z,2.00
2022-09-23T02:11:18.274Z,2.03
2022-09-23T02:13:51.221Z,1.73
2022-09-23T02:16:26.230Z,2.38
2022-09-23T02:19:00.248Z,1.98
2022-09-23T02:21:33.770Z,2.20
2022-09-23T02:26:35.495Z,1.73
2022-09-23T02:29:17.011Z,1.75
2022-09-23T02:31:48.630Z,1.85
2022-09-23T02:34:23.260Z,1.95
2022-09-23T02:37:04.509Z,2.00
2022-09-23T02:39:42.703Z,1.83
2022-09-23T02:42:15.768Z,1.90
2022-09-23T02:44:43.564Z,1.60
2022-09-23T02:47:11.502Z,2.60
2022-09-23T02:49:40.483Z,2.90
2022-09-23T02:52:09.200Z,2.30
2022-09-23T02:54:38.204Z,2.40
2022-09-23T02:57:08.088Z,2.85
2022-09-23T02:59:37.819Z,2.05
2022-09-23T03:02:26.478Z,2.10
2022-09-23T03:05:05.084Z,1.90
2022-09-23T03:07:42.779Z,2.10
2022-09-23T03:10:20.065Z,2.33
2022-09-23T03:12:59.419Z,1.80
2022-09-23T03:15:36.381Z,1.90
2022-09-23T03:18:11.986Z,1.88
2022-09-23T03:20:46.197Z,2.10
2022-09-23T03:23:17.564Z,1.77
2022-09-23T03:25:49.091Z,2.08
2022-09-23T03:28:18.425Z,2.00
2022-09-23T03:30:46.815Z,1.88
2022-09-23T03:33:16.783Z,2.05
2022-09-23T03:36:10.602Z,1.75
2022-09-23T03:38:42.436Z,2.10
2022-09-23T03:41:12.845Z,2.10
2022-09-23T03:43:40.970Z,1.60
2022-09-23T03:46:09.071Z,2.00
2022-09-23T03:48:36.656Z,1.90
2022-09-23T03:51:20.565Z,1.80
2022-09-23T03:53:48.200Z,1.92
2022-09-23T03:56:15.796Z,2.22
2022-09-23T03:58:43.956Z,1.90
2022-09-23T04:01:11.604Z,1.83
2022-09-23T04:03:39.224Z,1.88
2022-09-23T04:06:08.548Z,1.80
2022-09-23T04:08:36.125Z,2.00
2022-09-23T04:11:04.633Z,1.70
2022-09-23T04:13:32.637Z,1.75
2022-09-23T04:16:00.292Z,2.00
2022-09-23T04:18:27.889Z,2.00
2022-09-23T04:20:59.409Z,1.73
2022-09-23T04:23:28.464Z,1.80
2022-09-23T04:25:56.138Z,1.83
2022-09-23T04:28:23.739Z,1.70
2022-09-23T04:30:51.291Z,2.08
2022-09-23T04:33:18.857Z,4.13
2022-09-23T04:35:51.216Z,2.95
2022-09-23T04:38:19.651Z,1.83
2022-09-23T04:40:49.102Z,2.00
2022-09-23T04:43:17.472Z,2.33
2022-09-23T04:45:45.565Z,2.55
2022-09-23T04:48:13.824Z,3.20
2022-09-23T04:50:41.464Z,2.97
2022-09-23T04:53:09.051Z,2.22
2022-09-23T04:55:36.605Z,1.88
2022-09-23T04:58:05.496Z,1.92
2022-09-23T05:00:33.435Z,2.42
2022-09-23T05:03:00.994Z,2.70
2022-09-23T05:05:29.647Z,5.22
2022-09-23T05:07:57.835Z,3.90
2022-09-23T05:10:25.350Z,2.08
2022-09-23T05:12:57.100Z,2.13
2022-09-23T05:15:26.476Z,2.30
2022-09-23T05:17:54.004Z,2.42
2022-09-23T05:20:21.529Z,1.90
2022-09-23T05:22:49.028Z,2.10
2022-09-23T05:25:16.851Z,2.83
2022-09-23T05:27:44.371Z,4.28
2022-09-23T05:30:12.377Z,2.75
2022-09-23T05:32:41.253Z,2.08
2022-09-23T05:35:09.500Z,2.38
2022-09-23T05:37:37.160Z,1.80
2022-09-23T05:40:05.375Z,2.00
2022-09-23T05:42:32.897Z,2.33
2022-09-23T05:45:00.377Z,2.90
2022-09-23T05:47:27.889Z,2.65
2022-09-23T05:49:59.942Z,2.40
2022-09-23T05:52:28.236Z,2.60
2022-09-23T05:54:55.725Z,3.00
2022-09-23T05:57:23.286Z,2.80
2022-09-23T05:59:50.858Z,3.08
2022-09-23T06:02:18.430Z,3.08
2022-09-23T06:04:46.032Z,1.90
2022-09-23T06:07:14.854Z,2.25
2022-09-23T06:09:42.777Z,2.58
2022-09-23T06:12:10.244Z,2.58
2022-09-23T06:14:38.328Z,2.22
2022-09-23T06:17:05.858Z,2.83
2022-09-23T06:19:33.421Z,2.53
2022-09-23T06:22:01.545Z,2.28
2022-09-23T06:24:31.718Z,2.45
2022-09-23T06:26:59.386Z,2.20
2022-09-23T06:29:26.904Z,2.00
2022-09-23T06:31:54.634Z,2.20
2022-09-23T06:34:22.212Z,3.88
2022-09-23T06:36:51.476Z,3.30
2022-09-23T06:39:18.959Z,4.70
2022-09-23T06:41:48.044Z,4.63
2022-09-23T06:44:16.152Z,3.30
2022-09-23T06:46:44.286Z,3.22
2022-09-23T06:49:12.839Z,2.72
2022-09-23T06:51:40.995Z,2.95
2022-09-23T06:54:08.920Z,2.60
2022-09-23T06:56:39.528Z,2.42
2022-09-23T06:59:12.980Z,2.92
2022-09-23T07:01:40.608Z,3.15
2022-09-23T07:04:10.074Z,3.13
2022-09-23T07:06:37.950Z,3.00
2022-09-23T07:09:07.068Z,3.13
2022-09-23T07:11:34.635Z,3.30
2022-09-23T07:14:02.185Z,3.30
2022-09-23T07:16:31.493Z,3.35
2022-09-23T07:18:59.292Z,3.70
2022-09-23T07:21:27.788Z,2.92
2022-09-23T07:23:57.892Z,3.30
2022-09-23T07:26:26.527Z,2.90
2022-09-23T07:28:56.590Z,3.10
2022-09-23T07:31:37.401Z,3.00
2022-09-23T07:34:11.626Z,3.13
2022-09-23T07:36:41.934Z,2.85
2022-09-23T07:39:11.000Z,2.47
2022-09-23T07:41:39.145Z,2.75
2022-09-23T07:44:06.699Z,3.03
2022-09-23T07:46:36.911Z,2.88
2022-09-23T07:49:05.541Z,2.95
2022-09-23T07:51:38.119Z,2.67
2022-09-23T07:54:08.613Z,2.85
2022-09-23T07:56:38.314Z,2.53
2022-09-23T07:59:08.554Z,2.75
2022-09-23T08:01:38.890Z,2.33
2022-09-23T08:04:11.205Z,2.65
2022-09-23T08:06:43.407Z,2.65
2022-09-23T08:09:11.464Z,2.60
2022-09-23T08:11:39.325Z,2.75
2022-09-23T08:14:08.538Z,4.13
2022-09-23T08:16:37.051Z,3.58
2022-09-23T08:21:33.673Z,2.80
2022-09-23T08:24:02.979Z,2.08
2022-09-23T08:26:31.441Z,2.10
2022-09-23T08:28:58.928Z,2.13
2022-09-23T08:31:26.736Z,1.83
2022-09-23T08:33:56.557Z,1.98
2022-09-23T08:36:24.309Z,2.28
2022-09-23T08:38:51.933Z,2.50
2022-09-23T08:41:31.192Z,2.30
2022-09-23T08:44:04.784Z,1.90
2022-09-23T08:46:37.536Z,2.03
2022-09-23T08:49:07.619Z,1.95
2022-09-23T08:51:42.345Z,2.35
2022-09-23T08:54:11.083Z,1.92
2022-09-23T08:56:40.783Z,1.90
2022-09-23T08:59:15.206Z,1.70
2022-09-23T09:01:45.712Z,11.02
2022-09-23T09:04:18.281Z,9.40
2022-09-23T09:06:53.893Z,5.75
2022-09-23T09:09:26.593Z,3.72
2022-09-23T09:12:01.127Z,3.65
2022-09-23T09:14:36.717Z,2.00
2022-09-23T09:17:08.016Z,2.38
2022-09-23T09:20:05.242Z,2.90
2022-09-23T09:22:44.597Z,2.38
2022-09-23T09:25:23.799Z,1.67
2022-09-23T09:27:54.150Z,1.67
2022-09-23T09:30:21.757Z,1.50
2022-09-23T09:32:56.573Z,1.35
2022-09-23T09:35:34.976Z,1.63
2022-09-23T09:38:02.750Z,1.70
2022-09-23T09:40:30.882Z,1.40
2022-09-23T09:42:59.848Z,1.70
2022-09-23T09:45:42.632Z,1.80
2022-09-23T09:48:17.577Z,1.30
2022-09-23T09:50:49.028Z,1.30
2022-09-23T09:53:22.281Z,1.40
2022-09-23T09:56:04.356Z,1.40
2022-09-23T09:58:41.551Z,1.10
2022-09-23T10:01:09.464Z,1.30
2022-09-23T10:03:42.117Z,1.20
2022-09-23T10:06:18.776Z,1.80
2022-09-23T10:09:05.747Z,1.65
2022-09-23T10:11:34.090Z,1.98
2022-09-23T10:14:09.245Z,1.58
2022-09-23T10:16:37.111Z,1.70
2022-09-23T10:19:13.153Z,1.50
2022-09-23T10:21:42.147Z,1.35
2022-09-23T10:24:22.501Z,1.30
2022-09-23T10:26:55.885Z,3.83
2022-09-23T10:29:29.687Z,1.75
2022-09-23T10:32:22.864Z,1.73
2022-09-23T10:34:54.071Z,1.90
2022-09-23T10:37:30.650Z,1.48
2022-09-23T10:40:16.293Z,1.73
2022-09-23T10:43:20.394Z,1.17
2022-09-23T10:46:08.152Z,1.15
2022-09-23T10:48:46.858Z,1.60
2022-09-23T10:51:25.994Z,1.98
2022-09-23T10:54:03.939Z,1.70
2022-09-23T10:56:36.914Z,1.50
2022-09-23T10:59:33.498Z,1.85
2022-09-23T11:02:21.338Z,1.70
2022-09-23T11:05:06.528Z,1.77
2022-09-23T11:07:39.789Z,1.58
2022-09-23T11:10:44.851Z,9.82
2022-09-23T11:13:25.189Z,1.70
2022-09-23T11:16:01.811Z,1.70
2022-09-23T11:18:45.605Z,1.80
2022-09-23T11:21:31.091Z,2.53
2022-09-23T11:24:18.638Z,1.92
2022-09-23T11:26:56.435Z,2.53
2022-09-23T11:29:53.479Z,2.47
2022-09-23T11:32:41.108Z,3.40
2022-09-23T11:35:17.665Z,2.33
2022-09-23T11:37:49.812Z,2.17
2022-09-23T11:40:22.591Z,1.58
2022-09-23T11:42:56.094Z,2.03
2022-09-23T11:45:27.794Z,2.67
2022-09-23T11:47:58.400Z,2.25
2022-09-23T11:50:33.888Z,4.30
2022-09-23T11:53:05.777Z,1.90
2022-09-23T11:55:50.418Z,1.67
2022-09-23T11:58:27.124Z,1.67
2022-09-23T12:01:01.395Z,1.50
2022-09-23T12:03:44.377Z,1.73
2022-09-23T12:06:18.594Z,1.88
2022-09-23T12:08:46.369Z,1.80
2022-09-23T12:11:25.349Z,1.40
2022-09-23T12:14:02.861Z,1.30
2022-09-23T12:16:48.530Z,1.70
2022-09-23T12:19:36.790Z,1.80
2022-09-23T12:22:30.267Z,4.47
2022-09-23T12:25:00.352Z,4.50
2022-09-23T12:27:37.053Z,2.22
2022-09-23T12:30:07.796Z,1.67
2022-09-23T12:32:35.454Z,1.20
2022-09-23T12:35:03.435Z,2.22
2022-09-23T12:37:35.472Z,2.30
2022-09-23T12:40:10.513Z,1.42
2022-09-23T12:42:44.717Z,1.30
2022-09-23T12:45:35.018Z,1.40
2022-09-23T12:48:04.211Z,1.60
2022-09-23T12:50:49.121Z,1.45
2022-09-23T12:53:52.892Z,1.42
2022-09-23T12:56:24.373Z,1.02
2022-09-23T12:59:13.881Z,1.20
2022-09-23T13:01:42.143Z,1.10
2022-09-23T13:04:52.680Z,1.27
2022-09-23T13:07:25.423Z,1.48
2022-09-23T13:09:58.105Z,1.30
2022-09-23T13:12:33.466Z,1.17
2022-09-23T13:15:06.209Z,1.40
2022-09-23T13:17:37.294Z,1.00
2022-09-23T13:20:26.439Z,0.90
2022-09-23T13:23:21.323Z,1.00
2022-09-23T13:25:51.097Z,1.20
2022-09-23T13:28:36.777Z,1.08
2022-09-23T13:31:06.327Z,1.17
2022-09-23T13:33:42.823Z,1.02
2022-09-23T13:36:16.316Z,1.30
2022-09-23T13:38:46.512Z,1.80
2022-09-23T13:41:16.924Z,1.70
2022-09-23T13:43:48.955Z,1.10
2022-09-23T13:46:19.772Z,1.20
2022-09-23T13:48:49.750Z,1.10
2022-09-23T13:51:24.489Z,1.20
2022-09-23T13:53:56.613Z,0.90
2022-09-23T13:56:25.606Z,1.20
2022-09-23T13:58:56.562Z,1.20
2022-09-23T14:01:30.909Z,1.00
2022-09-23T14:03:59.012Z,1.20
2022-09-23T14:06:28.076Z,0.90
2022-09-23T14:08:56.475Z,1.15
2022-09-23T14:11:30.532Z,1.10
2022-09-23T14:14:07.736Z,1.10
2022-09-23T14:16:38.931Z,1.23
2022-09-23T14:19:07.929Z,1.70
2022-09-23T14:21:37.412Z,1.30
2022-09-23T14:24:16.629Z,1.20
2022-09-23T14:26:47.216Z,1.20
2022-09-23T14:29:18.528Z,1.40
2022-09-23T14:31:56.586Z,1.13
2022-09-23T14:34:49.951Z,1.13
2022-09-23T14:37:48.468Z,1.00
2022-09-23T14:40:18.509Z,1.20
2022-09-23T14:42:48.770Z,1.23
2022-09-23T14:45:21.404Z,1.00
2022-09-23T14:47:52.142Z,1.10
2022-09-23T14:50:39.260Z,1.10
2022-09-23T14:53:37.668Z,0.90
2022-09-23T14:56:15.620Z,0.85
2022-09-23T14:58:50.974Z,0.98
2022-09-23T15:01:42.193Z,1.00
2022-09-23T15:04:31.274Z,0.93
2022-09-23T15:07:03.272Z,1.05
2022-09-23T15:09:34.274Z,1.00
2022-09-23T15:12:06.413Z,1.10
2022-09-23T15:14:41.226Z,0.98
2022-09-23T15:17:32.551Z,1.30
2022-09-23T15:20:02.996Z,1.17
2022-09-23T15:22:30.510Z,1.30
2022-09-23T15:25:16.067Z,1.60
2022-09-23T15:27:57.333Z,1.50
2022-09-23T15:30:25.241Z,1.10
2022-09-23T15:32:54.135Z,0.98
2022-09-23T15:35:25.507Z,1.20
2022-09-23T15:37:57.120Z,1.13
2022-09-23T15:40:27.261Z,1.23
2022-09-23T15:42:56.733Z,1.10
2022-09-23T15:45:31.067Z,1.63
2022-09-23T15:48:07.071Z,1.20
2022-09-23T15:50:35.419Z,1.45
2022-09-23T15:53:03.024Z,1.05
2022-09-23T15:55:31.504Z,1.13
2022-09-23T15:57:59.044Z,1.10
2022-09-23T16:00:26.656Z,2.25
2022-09-23T16:02:55.115Z,2.10
2022-09-23T16:05:33.369Z,2.00
2022-09-23T16:08:04.900Z,2.70
2022-09-23T16:10:35.994Z,2.10
2022-09-23T16:13:05.801Z,1.30
2022-09-23T16:15:34.422Z,3.13
2022-09-23T16:18:02.298Z,3.30
2022-09-23T16:20:31.400Z,1.90
2022-09-23T16:23:00.721Z,3.40
2022-09-23T16:25:31.833Z,2.67
2022-09-23T16:27:59.542Z,3.67
2022-09-23T16:30:29.417Z,3.92
2022-09-23T16:32:57.245Z,1.88
2022-09-23T16:35:27.837Z,1.60
2022-09-23T16:37:57.087Z,1.48
2022-09-23T16:40:25.659Z,1.83
2022-09-23T16:42:54.795Z,2.50
2022-09-23T16:45:23.281Z,1.80
2022-09-23T16:47:52.344Z,2.20
2022-09-23T16:50:22.534Z,2.17
2022-09-23T16:52:52.218Z,1.95
2022-09-23T16:55:21.868Z,2.45
2022-09-23T16:57:49.469Z,2.03
2022-09-23T17:00:35.081Z,2.53
2022-09-23T17:03:20.659Z,1.77
2022-09-23T17:05:49.233Z,1.20
2022-09-23T17:08:18.188Z,1.70
2022-09-23T17:10:56.981Z,2.17
2022-09-23T17:13:25.349Z,5.30
2022-09-23T17:15:53.200Z,2.80
2022-09-23T17:18:21.603Z,2.45
2022-09-23T17:21:02.689Z,1.55
2022-09-23T17:23:31.853Z,1.50
2022-09-23T17:26:01.099Z,1.42
2022-09-23T17:28:29.128Z,2.38
2022-09-23T17:30:58.670Z,3.03
2022-09-23T17:33:26.931Z,2.50
2022-09-23T17:35:54.730Z,1.85
2022-09-23T17:38:27.998Z,2.00
2022-09-23T17:41:00.986Z,1.90
2022-09-23T17:43:31.357Z,1.40
2022-09-23T17:46:06.092Z,1.27
2022-09-23T17:48:35.740Z,5.10
2022-09-23T17:51:05.576Z,4.65
2022-09-23T17:53:35.010Z,4.40
2022-09-23T17:56:06.059Z,2.33
2022-09-23T17:58:36.831Z,1.63
2022-09-23T18:01:05.385Z,1.33
2022-09-23T18:03:33.099Z,1.70
2022-09-23T18:06:08.761Z,3.30
2022-09-23T18:08:36.450Z,3.17
2022-09-23T18:11:12.402Z,2.97
2022-09-23T18:13:41.572Z,2.80
2022-09-23T18:16:09.360Z,3.08
2022-09-23T18:18:37.044Z,1.80
2022-09-23T18:21:05.915Z,2.10
2022-09-23T18:23:34.361Z,3.63
2022-09-23T18:26:01.950Z,6.70
2022-09-23T18:28:34.644Z,3.35
2022-09-23T18:31:04.051Z,2.92
2022-09-23T18:33:31.699Z,3.20
2022-09-23T18:36:00.155Z,3.55
2022-09-23T18:38:27.727Z,2.80
2022-09-23T18:40:57.662Z,1.95
2022-09-23T18:43:29.520Z,1.75
2022-09-23T18:46:01.990Z,2.67
2022-09-23T18:48:49.746Z,3.17
2022-09-23T18:51:18.772Z,4.32
2022-09-23T18:53:47.895Z,3.97
2022-09-23T18:56:19.083Z,4.65
2022-09-23T18:58:47.617Z,2.90
2022-09-23T19:01:16.387Z,2.80
2022-09-23T19:03:45.497Z,3.40
2022-09-23T19:06:19.308Z,3.33
2022-09-23T19:08:51.194Z,2.60
2022-09-23T19:11:19.498Z,2.20
2022-09-23T19:13:47.592Z,2.22
2022-09-23T19:16:16.812Z,2.60
2022-09-23T19:18:46.567Z,3.17
2022-09-23T19:21:15.854Z,2.50
2022-09-23T19:23:47.947Z,3.55
2022-09-23T19:26:17.774Z,2.30
2022-09-23T19:28:49.773Z,2.80
2022-09-23T19:35:18.296Z,3.53
2022-09-23T19:37:49.200Z,3.50
2022-09-23T19:40:17.051Z,3.30
2022-09-23T19:42:44.660Z,3.05
2022-09-23T19:45:12.220Z,3.58
2022-09-23T19:47:39.789Z,4.85
2022-09-23T19:50:07.915Z,7.30
2022-09-23T19:52:37.688Z,8.32
2022-09-23T19:55:06.520Z,4.78
2022-09-23T19:57:34.294Z,3.55
2022-09-23T20:00:02.326Z,3.05
2022-09-23T20:02:39.845Z,4.10
2022-09-23T20:05:10.773Z,3.67
2022-09-23T20:07:42.324Z,4.28
2022-09-23T20:10:11.243Z,3.90
2022-09-23T20:12:42.092Z,4.47
2022-09-23T20:15:10.909Z,4.63
2022-09-23T20:17:39.917Z,4.60
2022-09-23T20:20:08.843Z,4.65
2022-09-23T20:22:36.425Z,4.60
2022-09-23T20:25:07.269Z,4.18
2022-09-23T20:27:34.785Z,4.30
2022-09-23T20:30:03.056Z,4.97
2022-09-23T20:32:30.726Z,4.97
2022-09-23T20:34:58.273Z,4.93
2022-09-23T20:37:25.914Z,5.03
2022-09-23T20:39:53.563Z,5.03
2022-09-23T20:42:22.424Z,5.07
2022-09-23T20:44:49.951Z,5.35
2022-09-23T20:47:18.744Z,5.03
2022-09-23T20:49:48.747Z,4.53
2022-09-23T20:52:20.154Z,4.32
2022-09-23T20:54:51.497Z,4.18
2022-09-23T20:57:20.860Z,4.72
2022-09-23T20:59:49.882Z,4.35
2022-09-23T21:02:17.600Z,4.30
2022-09-23T21:04:45.257Z,4.60
2022-09-23T21:07:12.749Z,4.57
2022-09-23T21:09:40.278Z,4.68
2022-09-23T21:12:07.859Z,4.97
2022-09-23T21:14:35.445Z,4.60
2022-09-23T21:17:04.298Z,4.60
2022-09-23T21:19:35.078Z,4.93
2022-09-23T21:22:02.564Z,4.30
2022-09-23T21:27:17.589Z,4.63
2022-09-23T21:29:45.141Z,4.78
2022-09-23T21:32:14.008Z,4.72
2022-09-23T21:34:41.547Z,4.57
2022-09-23T21:37:09.033Z,4.07
2022-09-23T21:39:36.568Z,4.70
2022-09-23T21:42:04.333Z,4.50
2022-09-23T21:44:31.877Z,4.55
2022-09-23T21:46:59.480Z,4.90
2022-09-23T21:49:28.457Z,4.22
2022-09-23T21:51:58.841Z,4.18
2022-09-23T21:54:26.583Z,3.90
2022-09-23T21:56:54.225Z,4.40
2022-09-23T21:59:21.782Z,4.53
2022-09-23T22:01:54.007Z,4.53
2022-09-23T22:04:22.107Z,4.40
2022-09-23T22:06:51.029Z,4.80
2022-09-23T22:09:20.288Z,4.68
2022-09-23T22:12:08.488Z,4.47
2022-09-23T22:14:36.758Z,4.57
2022-09-23T22:17:05.639Z,4.45
2022-09-23T22:19:39.377Z,4.68
2022-09-23T22:22:14.388Z,4.20
2022-09-23T22:24:42.589Z,4.60
2022-09-23T22:27:11.333Z,4.15
2022-09-23T22:29:56.229Z,4.78
2022-09-23T22:32:43.213Z,4.13
2022-09-23T22:35:12.686Z,4.50
2022-09-23T22:37:41.597Z,4.85
2022-09-23T22:40:11.367Z,5.13
2022-09-23T22:42:41.458Z,4.32
2022-09-23T22:45:10.797Z,4.75
2022-09-23T22:47:40.576Z,4.68
2022-09-23T22:50:10.029Z,4.38
2022-09-23T22:52:37.741Z,4.30
2022-09-23T22:55:07.916Z,4.40
2022-09-23T22:57:36.355Z,4.80
2022-09-23T23:00:04.072Z,4.40
2022-09-23T23:02:31.793Z,4.43
2022-09-23T23:05:00.229Z,4.30
2022-09-23T23:07:27.729Z,3.75
2022-09-23T23:09:55.491Z,3.85
2022-09-23T23:12:24.340Z,4.45
2022-09-23T23:14:51.844Z,4.57
2022-09-23T23:17:19.487Z,4.35
2022-09-23T23:19:47.932Z,4.13
2022-09-23T23:22:15.437Z,4.25
2022-09-23T23:24:43.020Z,3.88
2022-09-23T23:27:10.584Z,4.45
2022-09-23T23:29:39.410Z,4.18
2022-09-23T23:32:07.569Z,4.30
2022-09-23T23:34:35.090Z,4.28
2022-09-23T23:37:02.591Z,4.43
2022-09-23T23:39:30.141Z,4.30
2022-09-23T23:41:58.900Z,4.68
2022-09-23T23:44:27.677Z,4.38
2022-09-23T23:46:56.594Z,4.15
2022-09-23T23:49:24.153Z,4.20
2022-09-23T23:51:52.043Z,4.03
2022-09-23T23:54:19.546Z,4.90
2022-09-23T23:56:47.237Z,4.45
2022-09-23T23:59:14.889Z,4.28
